createdAt,value
2019-02-23T00:01:14.981Z,12.03
2019-02-23T00:03:44.158Z,12.20
2019-02-23T00:06:13.301Z,12.47
2019-02-23T00:08:42.443Z,12.50
2019-02-23T00:11:11.593Z,12.13
2019-02-23T00:13:40.710Z,12.47
2019-02-23T00:16:09.902Z,13.17
2019-02-23T00:18:39.205Z,12.53
2019-02-23T00:21:08.316Z,11.23
2019-02-23T00:23:37.477Z,12.03
2019-02-23T00:26:06.613Z,10.80
2019-02-23T00:28:35.721Z,11.47
2019-02-23T00:31:04.873Z,10.73
2019-02-23T00:33:34.017Z,12.13
2019-02-23T00:36:03.174Z,11.37
2019-02-23T00:38:32.306Z,12.77
2019-02-23T00:41:01.523Z,12.73
2019-02-23T00:43:30.637Z,11.97
2019-02-23T00:45:59.744Z,12.03
2019-02-23T00:48:28.965Z,10.43
2019-02-23T00:50:58.090Z,10.40
2019-02-23T00:53:27.193Z,10.87
2019-02-23T00:55:56.362Z,10.23
2019-02-23T00:58:25.564Z,10.87
2019-02-23T01:00:54.677Z,9.47
2019-02-23T01:03:23.901Z,10.50
2019-02-23T01:05:53.010Z,10.17
2019-02-23T01:08:22.135Z,9.27
2019-02-23T01:10:58.131Z,9.00
2019-02-23T01:13:22.196Z,9.07
2019-02-23T01:15:51.309Z,9.37
2019-02-23T01:18:20.451Z,9.60
2019-02-23T01:20:49.613Z,8.83
2019-02-23T01:23:19.229Z,8.73
2019-02-23T01:25:48.389Z,8.80
2019-02-23T01:28:17.909Z,9.60
2019-02-23T01:30:47.037Z,8.83
2019-02-23T01:33:16.198Z,8.97
2019-02-23T01:35:45.313Z,9.17
2019-02-23T01:38:14.457Z,9.27
2019-02-23T01:40:43.592Z,10.23
2019-02-23T01:43:12.746Z,11.27
2019-02-23T01:45:42.710Z,11.10
2019-02-23T01:48:11.997Z,10.30
2019-02-23T01:50:41.193Z,9.90
2019-02-23T01:53:10.306Z,9.43
2019-02-23T01:55:39.421Z,10.20
2019-02-23T01:58:08.549Z,9.10
2019-02-23T02:00:38.679Z,11.10
2019-02-23T02:03:07.858Z,9.03
2019-02-23T02:05:36.988Z,9.87
2019-02-23T02:08:06.140Z,10.03
2019-02-23T02:10:35.304Z,9.30
2019-02-23T02:13:04.464Z,9.03
2019-02-23T02:15:33.598Z,8.70
2019-02-23T02:18:02.737Z,8.20
2019-02-23T02:20:32.076Z,9.20
2019-02-23T02:23:01.269Z,7.97
2019-02-23T02:25:30.377Z,8.00
2019-02-23T02:27:59.525Z,8.07
2019-02-23T02:30:28.662Z,7.50
2019-02-23T02:32:57.794Z,8.20
2019-02-23T02:35:27.010Z,7.77
2019-02-23T02:37:56.137Z,8.27
2019-02-23T02:40:25.246Z,6.93
2019-02-23T02:42:54.393Z,8.10
2019-02-23T02:45:23.509Z,7.20
2019-02-23T02:47:52.629Z,8.70
2019-02-23T02:50:24.605Z,8.03
2019-02-23T02:52:52.621Z,7.00
2019-02-23T02:55:21.721Z,8.40
2019-02-23T02:57:50.855Z,8.23
2019-02-23T03:00:19.997Z,8.50
2019-02-23T03:02:49.140Z,8.63
2019-02-23T03:05:18.331Z,8.87
2019-02-23T03:07:47.445Z,8.83
2019-02-23T03:10:16.549Z,9.17
2019-02-23T03:12:45.687Z,8.90
2019-02-23T03:15:14.786Z,9.53
2019-02-23T03:17:43.941Z,9.37
2019-02-23T03:20:13.056Z,8.40
2019-02-23T03:22:42.177Z,9.50
2019-02-23T03:25:11.740Z,8.93
2019-02-23T03:27:40.875Z,7.70
2019-02-23T03:30:11.088Z,8.43
2019-02-23T03:32:40.357Z,9.73
2019-02-23T03:35:09.557Z,8.23
2019-02-23T03:37:38.755Z,8.67
2019-02-23T03:40:09.299Z,7.73
2019-02-23T03:42:38.543Z,8.30
2019-02-23T03:45:07.789Z,8.60
2019-02-23T03:47:36.927Z,8.43
2019-02-23T03:50:06.899Z,8.70
2019-02-23T03:52:36.034Z,8.80
2019-02-23T03:55:05.603Z,8.50
2019-02-23T03:57:34.730Z,8.60
2019-02-23T04:00:04.024Z,9.13
2019-02-23T04:02:33.172Z,8.80
2019-02-23T04:05:02.307Z,8.93
2019-02-23T04:07:31.461Z,8.27
2019-02-23T04:10:00.630Z,7.87
2019-02-23T04:12:29.768Z,8.13
2019-02-23T04:14:58.886Z,9.00
2019-02-23T04:17:28.024Z,8.17
2019-02-23T04:19:57.226Z,7.93
2019-02-23T04:22:26.315Z,9.87
2019-02-23T04:24:55.455Z,9.40
2019-02-23T04:27:24.641Z,9.53
2019-02-23T04:29:53.737Z,8.83
2019-02-23T04:32:22.925Z,9.07
2019-02-23T04:34:52.421Z,10.30
2019-02-23T04:37:21.540Z,10.17
2019-02-23T04:39:50.795Z,10.20
2019-02-23T04:42:19.973Z,10.80
2019-02-23T04:44:49.118Z,9.53
2019-02-23T04:47:18.236Z,10.80
2019-02-23T04:49:53.873Z,10.13
2019-02-23T04:52:23.085Z,10.30
2019-02-23T04:54:52.245Z,8.93
2019-02-23T04:57:21.409Z,9.63
2019-02-23T04:59:50.560Z,10.10
2019-02-23T05:02:19.757Z,10.57
2019-02-23T05:04:48.928Z,9.97
2019-02-23T05:07:18.041Z,9.77
2019-02-23T05:09:47.139Z,10.50
2019-02-23T05:12:16.287Z,10.93
2019-02-23T05:14:45.479Z,11.30
2019-02-23T05:17:14.662Z,10.63
2019-02-23T05:19:43.849Z,11.17
2019-02-23T05:22:13.008Z,12.33
2019-02-23T05:24:42.121Z,11.77
2019-02-23T05:27:11.251Z,11.83
2019-02-23T05:29:40.365Z,12.13
2019-02-23T05:32:09.525Z,11.70
2019-02-23T05:34:38.631Z,12.87
2019-02-23T05:37:07.846Z,12.87
2019-02-23T05:39:36.981Z,11.90
2019-02-23T05:42:06.145Z,13.13
2019-02-23T05:44:35.258Z,12.73
2019-02-23T05:47:04.601Z,13.23
2019-02-23T05:49:36.666Z,14.47
2019-02-23T05:52:04.587Z,12.97
2019-02-23T05:54:33.714Z,14.60
2019-02-23T05:57:02.862Z,14.17
2019-02-23T05:59:31.998Z,12.97
2019-02-23T06:02:01.177Z,11.63
2019-02-23T06:04:30.334Z,11.87
2019-02-23T06:06:59.474Z,11.43
2019-02-23T06:09:28.603Z,10.83
2019-02-23T06:11:57.782Z,11.20
2019-02-23T06:14:26.884Z,10.57
2019-02-23T06:16:56.003Z,11.67
2019-02-23T06:19:25.137Z,11.60
2019-02-23T06:21:54.748Z,10.73
2019-02-23T06:24:24.058Z,11.00
2019-02-23T06:26:54.115Z,11.93
2019-02-23T06:29:23.238Z,12.80
2019-02-23T06:31:52.378Z,11.73
2019-02-23T06:34:21.546Z,12.67
2019-02-23T06:36:50.815Z,13.57
2019-02-23T06:39:19.986Z,13.13
2019-02-23T06:41:49.114Z,15.67
2019-02-23T06:44:18.289Z,16.57
2019-02-23T06:46:47.458Z,15.10
2019-02-23T06:49:16.577Z,14.37
2019-02-23T06:51:45.768Z,13.57
2019-02-23T06:54:14.880Z,14.00
2019-02-23T06:56:43.993Z,13.97
2019-02-23T06:59:13.201Z,12.90
2019-02-23T07:01:42.297Z,12.43
2019-02-23T07:04:11.474Z,13.03
2019-02-23T07:06:40.861Z,13.83
2019-02-23T07:09:10.002Z,13.70
2019-02-23T07:11:39.127Z,12.70
2019-02-23T07:14:08.272Z,12.63
2019-02-23T07:16:37.414Z,13.30
2019-02-23T07:19:06.569Z,13.00
2019-02-23T07:21:35.725Z,12.57
2019-02-23T07:24:04.853Z,13.30
2019-02-23T07:26:34.025Z,12.13
2019-02-23T07:29:03.144Z,11.77
2019-02-23T07:31:32.253Z,11.87
2019-02-23T07:34:01.437Z,12.50
2019-02-23T07:36:30.578Z,11.80
2019-02-23T07:38:59.749Z,13.43
2019-02-23T07:41:28.928Z,13.67
2019-02-23T07:43:58.040Z,13.67
2019-02-23T07:46:27.220Z,12.77
2019-02-23T07:48:56.393Z,13.20
2019-02-23T07:51:25.509Z,13.37
2019-02-23T07:53:54.628Z,13.00
2019-02-23T07:56:23.833Z,15.17
2019-02-23T07:58:52.962Z,15.17
2019-02-23T08:01:22.094Z,16.27
2019-02-23T08:03:51.254Z,16.23
2019-02-23T08:06:20.445Z,13.60
2019-02-23T08:08:49.587Z,15.17
2019-02-23T08:11:18.746Z,15.37
2019-02-23T08:13:47.904Z,14.73
2019-02-23T08:16:17.086Z,13.80
2019-02-23T08:18:46.253Z,14.27
2019-02-23T08:21:15.371Z,12.73
2019-02-23T08:23:44.501Z,12.47
2019-02-23T08:26:13.642Z,14.23
2019-02-23T08:28:42.774Z,14.40
2019-02-23T08:31:13.377Z,13.60
2019-02-23T08:33:42.785Z,13.60
2019-02-23T08:36:11.937Z,12.87
2019-02-23T08:38:41.196Z,12.70
2019-02-23T08:41:10.349Z,12.67
2019-02-23T08:43:39.515Z,11.90
2019-02-23T08:46:08.745Z,12.60
2019-02-23T08:48:37.938Z,11.37
2019-02-23T08:51:07.069Z,12.40
2019-02-23T08:53:36.241Z,12.33
2019-02-23T08:56:05.353Z,10.23
2019-02-23T08:58:34.465Z,10.90
2019-02-23T09:01:03.594Z,12.20
2019-02-23T09:03:32.699Z,11.30
2019-02-23T09:06:01.861Z,10.73
2019-02-23T09:08:31.104Z,12.83
2019-02-23T09:11:00.281Z,13.43
2019-02-23T09:13:29.405Z,13.67
2019-02-23T09:15:58.538Z,12.37
2019-02-23T09:18:27.653Z,12.23
2019-02-23T09:20:56.832Z,11.33
2019-02-23T09:23:25.961Z,12.43
2019-02-23T09:25:57.739Z,11.20
2019-02-23T09:28:26.017Z,10.43
2019-02-23T09:30:55.150Z,10.87
2019-02-23T09:33:24.295Z,9.27
2019-02-23T09:35:53.437Z,11.10
2019-02-23T09:38:22.645Z,6.83
2019-02-23T09:40:51.745Z,4.77
2019-02-23T09:43:20.881Z,4.77
2019-02-23T09:45:50.049Z,6.37
2019-02-23T09:48:19.177Z,8.37
2019-02-23T09:50:48.286Z,6.43
2019-02-23T09:53:17.405Z,5.87
2019-02-23T09:55:46.550Z,6.70
2019-02-23T09:58:15.648Z,6.30
2019-02-23T10:00:44.762Z,5.80
2019-02-23T10:03:13.865Z,6.20
2019-02-23T10:05:43.028Z,6.97
2019-02-23T10:08:12.146Z,7.63
2019-02-23T10:10:41.256Z,6.63
2019-02-23T10:13:10.473Z,7.00
2019-02-23T10:15:39.625Z,8.00
2019-02-23T10:18:08.726Z,6.77
2019-02-23T10:20:37.842Z,7.77
2019-02-23T10:23:07.038Z,7.60
2019-02-23T10:25:36.248Z,9.10
2019-02-23T10:28:05.572Z,9.07
2019-02-23T10:30:34.683Z,7.43
2019-02-23T10:33:03.828Z,8.00
2019-02-23T10:35:32.968Z,7.00
2019-02-23T10:38:02.097Z,6.73
2019-02-23T10:40:31.330Z,7.00
2019-02-23T10:43:00.561Z,7.00
2019-02-23T10:45:29.695Z,7.27
2019-02-23T10:47:58.875Z,7.70
2019-02-23T10:50:28.061Z,7.10
2019-02-23T10:52:57.181Z,7.63
2019-02-23T10:55:26.301Z,8.63
2019-02-23T10:57:55.425Z,10.13
2019-02-23T11:00:24.552Z,11.13
2019-02-23T11:02:53.753Z,9.37
2019-02-23T11:05:23.261Z,10.80
2019-02-23T11:07:52.452Z,8.57
2019-02-23T11:10:21.962Z,8.40
2019-02-23T11:12:51.205Z,9.37
2019-02-23T11:15:21.477Z,8.13
2019-02-23T11:17:50.584Z,7.70
2019-02-23T11:20:20.101Z,8.93
2019-02-23T11:22:49.323Z,8.47
2019-02-23T11:25:18.429Z,9.10
2019-02-23T11:27:47.578Z,9.10
2019-02-23T11:30:16.929Z,8.27
2019-02-23T11:32:46.083Z,8.60
2019-02-23T11:35:17.481Z,8.03
2019-02-23T11:37:46.081Z,8.27
2019-02-23T11:40:15.208Z,8.70
2019-02-23T11:42:44.325Z,8.37
2019-02-23T11:45:13.450Z,8.13
2019-02-23T11:47:42.589Z,8.83
2019-02-23T11:50:11.753Z,8.07
2019-02-23T11:52:40.871Z,10.07
2019-02-23T11:55:09.989Z,10.17
2019-02-23T11:57:39.125Z,10.73
2019-02-23T12:00:08.896Z,9.90
2019-02-23T12:02:38.018Z,8.83
2019-02-23T12:05:07.663Z,9.43
2019-02-23T12:07:36.793Z,9.30
2019-02-23T12:10:07.605Z,8.30
2019-02-23T12:12:36.709Z,7.93
2019-02-23T12:15:06.345Z,8.87
2019-02-23T12:17:35.617Z,10.33
2019-02-23T12:20:04.841Z,14.43
2019-02-23T12:22:33.973Z,10.77
2019-02-23T12:25:03.088Z,11.50
2019-02-23T12:27:32.222Z,9.93
2019-02-23T12:30:01.419Z,11.00
2019-02-23T12:32:30.540Z,9.37
2019-02-23T12:34:59.713Z,10.37
2019-02-23T12:37:28.813Z,10.80
2019-02-23T12:39:57.920Z,10.73
2019-02-23T12:42:27.718Z,8.70
2019-02-23T12:44:57.052Z,10.07
2019-02-23T12:47:26.171Z,10.67
2019-02-23T12:49:55.270Z,8.77
2019-02-23T12:52:24.398Z,9.37
2019-02-23T12:54:53.513Z,9.20
2019-02-23T12:57:22.725Z,9.50
2019-02-23T12:59:51.850Z,8.03
2019-02-23T13:02:20.997Z,8.67
2019-02-23T13:04:50.345Z,7.73
2019-02-23T13:07:19.561Z,9.17
2019-02-23T13:09:51.834Z,8.50
2019-02-23T13:12:28.737Z,9.33
2019-02-23T13:15:18.871Z,16.17
2019-02-23T13:18:16.870Z,12.77
2019-02-23T13:21:07.745Z,11.87
2019-02-23T13:23:56.733Z,9.67
2019-02-23T13:26:57.253Z,11.40
2019-02-23T13:29:39.677Z,9.20
2019-02-23T13:33:14.353Z,9.67
2019-02-23T13:36:39.753Z,10.53
2019-02-23T13:39:34.065Z,10.23
2019-02-23T13:42:49.474Z,10.07
2019-02-23T13:45:38.398Z,9.27
2019-02-23T13:48:39.201Z,9.40
2019-02-23T13:51:34.688Z,9.90
2019-02-23T13:54:38.614Z,10.03
2019-02-23T13:57:42.925Z,10.43
2019-02-23T14:00:46.585Z,15.90
2019-02-23T14:03:42.209Z,27.37
2019-02-23T14:06:55.427Z,24.17
2019-02-23T14:10:08.393Z,13.30
2019-02-23T14:13:20.082Z,11.27
2019-02-23T14:16:36.185Z,10.90
2019-02-23T14:19:43.510Z,10.63
2019-02-23T14:22:26.737Z,10.47
2019-02-23T14:25:42.131Z,9.37
2019-02-23T14:29:10.565Z,9.00
2019-02-23T14:32:28.197Z,11.10
2019-02-23T14:35:27.202Z,10.50
2019-02-23T14:38:32.364Z,12.57
2019-02-23T14:41:15.489Z,17.03
2019-02-23T14:44:13.608Z,14.60
2019-02-23T14:47:08.378Z,11.67
2019-02-23T14:50:17.385Z,11.07
2019-02-23T14:53:03.261Z,9.63
2019-02-23T14:56:29.049Z,14.10
2019-02-23T14:59:37.036Z,15.40
2019-02-23T15:02:32.205Z,19.13
2019-02-23T15:05:35.421Z,12.83
2019-02-23T15:08:30.013Z,11.50
2019-02-23T15:11:33.875Z,12.47
2019-02-23T15:14:34.442Z,12.57
2019-02-23T15:17:51.549Z,11.90
2019-02-23T15:20:58.018Z,11.47
2019-02-23T15:24:11.221Z,12.83
2019-02-23T15:27:24.391Z,11.73
2019-02-23T15:30:46.815Z,11.43
2019-02-23T15:33:51.326Z,10.67
2019-02-23T15:37:00.231Z,9.43
2019-02-23T15:40:07.584Z,10.37
2019-02-23T15:43:14.932Z,9.53
2019-02-23T15:46:31.792Z,10.80
2019-02-23T15:49:30.055Z,11.20
2019-02-23T15:52:00.104Z,12.60
2019-02-23T15:54:29.424Z,10.00
2019-02-23T15:56:58.705Z,9.97
2019-02-23T15:59:27.922Z,10.73
2019-02-23T16:01:57.066Z,10.90
2019-02-23T16:04:26.193Z,9.93
2019-02-23T16:06:55.373Z,10.00
2019-02-23T16:09:24.485Z,9.57
2019-02-23T16:11:53.677Z,10.83
2019-02-23T16:14:22.818Z,10.17
2019-02-23T16:16:52.146Z,10.50
2019-02-23T16:19:21.253Z,14.07
2019-02-23T16:21:52.791Z,13.10
2019-02-23T16:24:21.278Z,13.63
2019-02-23T16:26:50.431Z,13.97
2019-02-23T16:29:19.621Z,16.67
2019-02-23T16:31:48.746Z,19.00
2019-02-23T16:34:17.927Z,19.17
2019-02-23T16:36:47.134Z,18.77
2019-02-23T16:39:16.270Z,17.37
2019-02-23T16:41:45.466Z,13.00
2019-02-23T16:44:14.581Z,15.07
2019-02-23T16:46:46.322Z,13.73
2019-02-23T16:49:14.543Z,14.00
2019-02-23T16:51:43.693Z,15.30
2019-02-23T16:54:12.809Z,15.90
2019-02-23T16:56:41.912Z,15.40
2019-02-23T16:59:11.049Z,14.73
2019-02-23T17:01:40.179Z,15.00
2019-02-23T17:04:09.444Z,14.17
2019-02-23T17:06:38.661Z,13.90
2019-02-23T17:09:08.042Z,14.27
2019-02-23T17:11:37.166Z,14.67
2019-02-23T17:14:06.363Z,16.00
2019-02-23T17:16:35.567Z,18.03
2019-02-23T17:19:04.753Z,17.27
2019-02-23T17:21:33.934Z,17.70
2019-02-23T17:24:03.118Z,16.37
2019-02-23T17:26:32.385Z,17.13
2019-02-23T17:29:01.577Z,17.87
2019-02-23T17:31:30.812Z,18.50
2019-02-23T17:33:59.997Z,18.27
2019-02-23T17:36:29.115Z,17.63
2019-02-23T17:38:58.277Z,17.30
2019-02-23T17:41:27.441Z,16.27
2019-02-23T17:43:56.604Z,17.97
2019-02-23T17:46:26.029Z,19.77
2019-02-23T17:48:55.199Z,20.40
2019-02-23T17:51:24.337Z,18.73
2019-02-23T17:53:53.494Z,19.67
2019-02-23T17:56:22.797Z,20.53
2019-02-23T17:58:52.038Z,20.20
2019-02-23T18:01:21.261Z,19.20
2019-02-23T18:03:50.409Z,18.87
2019-02-23T18:06:19.553Z,17.70
2019-02-23T18:08:48.704Z,17.13
2019-02-23T18:11:17.875Z,17.27
2019-02-23T18:13:46.976Z,16.13
2019-02-23T18:16:16.092Z,15.90
2019-02-23T18:18:45.245Z,14.30
2019-02-23T18:21:14.461Z,13.90
2019-02-23T18:23:43.637Z,13.57
2019-02-23T18:26:18.965Z,14.27
2019-02-23T18:28:43.729Z,15.30
2019-02-23T18:31:12.882Z,14.30
2019-02-23T18:33:41.989Z,13.03
2019-02-23T18:36:11.149Z,13.47
2019-02-23T18:38:40.297Z,12.77
2019-02-23T18:41:09.621Z,13.50
2019-02-23T18:43:38.772Z,14.33
2019-02-23T18:46:07.902Z,13.60
2019-02-23T18:48:37.109Z,13.63
2019-02-23T18:51:06.236Z,14.13
2019-02-23T18:53:35.334Z,15.00
2019-02-23T18:56:05.944Z,13.50
2019-02-23T18:58:35.074Z,14.63
2019-02-23T19:01:04.198Z,15.10
2019-02-23T19:03:33.431Z,14.37
2019-02-23T19:06:02.597Z,15.10
2019-02-23T19:08:31.709Z,16.47
2019-02-23T19:11:00.809Z,15.90
2019-02-23T19:13:29.964Z,16.87
2019-02-23T19:15:59.159Z,16.53
2019-02-23T19:18:28.257Z,17.60
2019-02-23T19:20:57.462Z,17.90
2019-02-23T19:23:26.621Z,18.30
2019-02-23T19:25:55.733Z,19.40
2019-02-23T19:28:24.933Z,18.47
2019-02-23T19:30:54.077Z,19.17
2019-02-23T19:33:23.292Z,18.60
2019-02-23T19:35:52.397Z,19.50
2019-02-23T19:38:21.505Z,20.90
2019-02-23T19:40:50.612Z,24.77
2019-02-23T19:43:19.741Z,24.30
2019-02-23T19:45:48.853Z,24.87
2019-02-23T19:48:17.977Z,23.07
2019-02-23T19:50:50.877Z,22.40
2019-02-23T19:53:20.013Z,21.23
2019-02-23T19:55:49.157Z,20.13
2019-02-23T19:58:18.294Z,21.43
2019-02-23T20:00:47.422Z,21.20
2019-02-23T20:03:16.533Z,20.67
2019-02-23T20:05:45.733Z,21.20
2019-02-23T20:08:14.907Z,20.93
2019-02-23T20:10:44.050Z,19.97
2019-02-23T20:13:13.197Z,20.47
2019-02-23T20:15:42.314Z,19.60
2019-02-23T20:18:11.437Z,20.50
2019-02-23T20:20:40.590Z,21.57
2019-02-23T20:23:09.813Z,20.63
2019-02-23T20:25:38.928Z,20.63
2019-02-23T20:28:08.169Z,19.03
2019-02-23T20:30:37.319Z,19.10
2019-02-23T20:33:06.453Z,17.87
2019-02-23T20:35:35.657Z,18.43
2019-02-23T20:38:04.925Z,18.47
2019-02-23T20:40:34.038Z,17.50
2019-02-23T20:43:03.193Z,16.87
2019-02-23T20:45:32.321Z,18.03
2019-02-23T20:48:01.581Z,18.27
2019-02-23T20:50:30.717Z,17.87
2019-02-23T20:52:59.853Z,18.27
2019-02-23T20:55:28.990Z,19.53
2019-02-23T20:57:58.205Z,20.00
2019-02-23T21:00:27.401Z,19.50
2019-02-23T21:02:56.621Z,18.67
2019-02-23T21:05:25.840Z,19.67
2019-02-23T21:07:55.037Z,19.50
2019-02-23T21:10:24.223Z,19.47
2019-02-23T21:12:53.531Z,19.87
2019-02-23T21:15:22.653Z,19.80
2019-02-23T21:17:51.760Z,20.47
2019-02-23T21:20:20.937Z,20.47
2019-02-23T21:22:50.073Z,20.27
2019-02-23T21:25:19.214Z,19.80
2019-02-23T21:27:48.424Z,20.00
2019-02-23T21:30:17.625Z,21.53
2019-02-23T21:32:46.755Z,23.30
2019-02-23T21:35:15.955Z,33.07
2019-02-23T21:37:45.085Z,28.47
2019-02-23T21:40:14.289Z,25.40
2019-02-23T21:42:43.498Z,25.23
2019-02-23T21:45:12.654Z,22.97
2019-02-23T21:47:41.794Z,23.17
2019-02-23T21:50:11.054Z,22.03
2019-02-23T21:52:40.301Z,24.53
2019-02-23T21:55:09.486Z,23.73
2019-02-23T21:57:38.875Z,23.20
2019-02-23T22:00:08.139Z,23.63
2019-02-23T22:02:37.383Z,23.13
2019-02-23T22:05:12.443Z,24.73
2019-02-23T22:07:37.713Z,23.87
2019-02-23T22:10:07.483Z,22.73
2019-02-23T22:12:36.774Z,22.03
2019-02-23T22:15:06.427Z,23.70
2019-02-23T22:17:35.607Z,23.53
2019-02-23T22:20:05.045Z,22.73
2019-02-23T22:22:34.208Z,22.70
2019-02-23T22:25:03.343Z,22.20
2019-02-23T22:27:32.470Z,21.77
2019-02-23T22:30:01.633Z,21.83
2019-02-23T22:32:30.912Z,23.27
2019-02-23T22:35:00.546Z,22.90
2019-02-23T22:37:29.834Z,23.33
2019-02-23T22:39:58.953Z,23.70
2019-02-23T22:42:28.067Z,25.00
2019-02-23T22:44:57.184Z,25.33
2019-02-23T22:47:26.380Z,27.37
2019-02-23T22:49:55.498Z,27.57
2019-02-23T22:52:24.665Z,25.60
2019-02-23T22:54:53.801Z,27.33
2019-02-23T22:57:22.916Z,26.10
2019-02-23T22:59:52.054Z,24.83
2019-02-23T23:02:21.360Z,26.80
2019-02-23T23:04:50.481Z,25.23
2019-02-23T23:07:19.605Z,25.50
2019-02-23T23:09:48.709Z,27.50
2019-02-23T23:12:17.813Z,26.40
2019-02-23T23:14:46.970Z,25.90
2019-02-23T23:17:16.097Z,28.03
2019-02-23T23:19:45.202Z,29.67
2019-02-23T23:22:14.313Z,30.17
2019-02-23T23:24:43.436Z,27.80
2019-02-23T23:27:12.568Z,28.77
2019-02-23T23:29:41.701Z,29.20
2019-02-23T23:32:10.797Z,26.87
2019-02-23T23:34:39.986Z,26.80
2019-02-23T23:37:09.131Z,27.23
2019-02-23T23:39:38.256Z,27.63
2019-02-23T23:42:07.436Z,24.73
2019-02-23T23:44:36.552Z,25.50
2019-02-23T23:47:05.757Z,27.37
2019-02-23T23:49:34.894Z,25.47
2019-02-23T23:52:04.091Z,26.43
2019-02-23T23:54:33.289Z,24.13
2019-02-23T23:57:02.546Z,23.30
2019-02-23T23:59:31.658Z,22.13
